createdAt,value
2022-08-16T00:04:05.104Z,15.52
2022-08-16T00:09:07.916Z,14.95
2022-08-16T00:14:18.847Z,16.20
2022-08-16T00:19:24.353Z,16.27
2022-08-16T00:24:32.750Z,16.58
2022-08-16T00:29:34.929Z,17.88
2022-08-16T00:34:44.988Z,16.52
2022-08-16T00:39:57.401Z,17.63
2022-08-16T00:45:12.127Z,18.35
2022-08-16T00:50:14.637Z,17.30
2022-08-16T00:55:22.272Z,17.48
2022-08-16T01:00:28.633Z,16.92
2022-08-16T01:05:32.931Z,16.88
2022-08-16T01:10:35.824Z,15.27
2022-08-16T01:15:44.019Z,16.30
2022-08-16T01:20:59.358Z,15.23
2022-08-16T01:26:34.889Z,14.73
2022-08-16T01:31:25.352Z,16.55
2022-08-16T01:36:35.255Z,14.98
2022-08-16T01:41:42.164Z,15.82
2022-08-16T01:46:48.204Z,15.48
2022-08-16T01:51:55.840Z,16.42
2022-08-16T01:56:58.115Z,15.80
2022-08-16T02:02:00.956Z,15.57
2022-08-16T02:07:08.678Z,16.23
2022-08-16T02:12:39.696Z,15.10
2022-08-16T02:17:35.823Z,16.30
2022-08-16T02:22:37.804Z,15.63
2022-08-16T02:27:41.631Z,16.25
2022-08-16T02:32:49.065Z,15.25
2022-08-16T02:37:53.664Z,14.70
2022-08-16T02:42:58.118Z,15.73
2022-08-16T02:48:29.435Z,15.68
2022-08-16T02:53:23.378Z,15.98
2022-08-16T02:58:25.865Z,15.30
2022-08-16T03:04:30.017Z,15.10
2022-08-16T03:08:53.195Z,15.10
2022-08-16T03:13:56.408Z,16.20
2022-08-16T03:18:58.565Z,16.15
2022-08-16T03:24:03.871Z,15.95
2022-08-16T03:29:05.800Z,15.90
2022-08-16T03:34:09.305Z,15.38
2022-08-16T03:39:15.030Z,15.88
2022-08-16T03:44:44.515Z,15.18
2022-08-16T03:49:44.229Z,15.45
2022-08-16T03:54:53.577Z,13.88
2022-08-16T04:00:00.099Z,13.95
2022-08-16T04:05:01.908Z,13.80
2022-08-16T04:10:11.455Z,13.35
2022-08-16T04:15:30.281Z,13.52
2022-08-16T04:20:37.074Z,13.38
2022-08-16T04:25:39.158Z,13.85
2022-08-16T04:30:42.359Z,13.80
2022-08-16T04:35:49.636Z,13.52
2022-08-16T04:40:52.046Z,12.85
2022-08-16T04:46:00.214Z,13.15
2022-08-16T04:51:11.527Z,12.50
2022-08-16T04:56:14.546Z,12.20
2022-08-16T05:01:18.962Z,11.90
2022-08-16T05:06:21.009Z,15.98
2022-08-16T05:11:42.769Z,11.43
2022-08-16T05:16:44.785Z,12.02
2022-08-16T05:21:46.483Z,10.68
2022-08-16T05:26:51.436Z,11.00
2022-08-16T05:31:53.539Z,10.30
2022-08-16T05:36:57.377Z,9.93
2022-08-16T05:42:00.593Z,9.95
2022-08-16T05:47:02.488Z,9.90
2022-08-16T05:52:05.641Z,9.80
2022-08-16T05:57:13.670Z,9.18
2022-08-16T06:02:17.546Z,9.15
2022-08-16T06:07:25.141Z,9.07
2022-08-16T06:12:29.552Z,9.15
2022-08-16T06:17:41.144Z,8.70
2022-08-16T06:22:47.585Z,8.52
2022-08-16T06:27:59.051Z,8.27
2022-08-16T06:33:03.756Z,7.60
2022-08-16T06:38:05.491Z,7.35
2022-08-16T06:43:27.825Z,7.32
2022-08-16T06:48:33.111Z,7.10
2022-08-16T06:53:36.715Z,6.70
2022-08-16T06:58:38.673Z,6.50
2022-08-16T07:03:55.226Z,6.38
2022-08-16T07:08:58.996Z,6.10
2022-08-16T07:14:24.350Z,6.85
2022-08-16T07:19:22.394Z,6.70
2022-08-16T07:24:45.989Z,6.43
2022-08-16T07:29:48.311Z,6.45
2022-08-16T07:34:50.253Z,6.15
2022-08-16T07:39:54.702Z,6.30
2022-08-16T07:44:57.662Z,6.47
2022-08-16T07:50:05.441Z,6.90
2022-08-16T07:55:13.815Z,6.47
2022-08-16T08:00:18.437Z,6.95
2022-08-16T08:05:25.547Z,7.20
2022-08-16T08:10:37.694Z,6.93
2022-08-16T08:15:40.524Z,7.47
2022-08-16T08:20:59.416Z,7.25
2022-08-16T08:26:02.068Z,8.00
2022-08-16T08:31:04.149Z,7.28
2022-08-16T08:36:08.360Z,7.35
2022-08-16T08:41:10.947Z,7.70
2022-08-16T08:46:18.102Z,7.45
2022-08-16T08:51:25.349Z,7.28
2022-08-16T08:56:34.781Z,7.10
2022-08-16T09:01:43.199Z,6.85
2022-08-16T09:07:01.139Z,6.90
2022-08-16T09:12:06.782Z,6.78
2022-08-16T09:17:11.805Z,6.40
2022-08-16T09:22:25.325Z,6.35
2022-08-16T09:27:29.926Z,6.63
2022-08-16T09:32:54.643Z,5.82
2022-08-16T09:38:00.886Z,5.60
2022-08-16T09:43:04.812Z,5.03
2022-08-16T09:48:10.063Z,5.40
2022-08-16T09:53:32.373Z,4.90
2022-08-16T09:58:39.040Z,4.50
2022-08-16T10:04:01.508Z,4.32
2022-08-16T10:09:08.320Z,4.03
2022-08-16T10:14:15.946Z,4.07
2022-08-16T10:19:19.265Z,3.65
2022-08-16T10:24:28.679Z,4.22
2022-08-16T10:29:59.366Z,3.75
2022-08-16T10:34:52.627Z,3.58
2022-08-16T10:39:55.756Z,3.38
2022-08-16T10:44:57.626Z,3.90
2022-08-16T10:49:59.498Z,3.90
2022-08-16T11:00:24.160Z,3.10
2022-08-16T11:05:26.566Z,3.38
2022-08-16T11:15:57.590Z,3.70
2022-08-16T11:20:59.612Z,3.30
2022-08-16T11:26:10.301Z,4.35
2022-08-16T11:31:24.609Z,3.42
2022-08-16T11:36:28.160Z,3.67
2022-08-16T11:41:34.067Z,3.38
2022-08-16T11:46:44.753Z,3.42
2022-08-16T11:51:49.569Z,3.70
2022-08-16T11:56:56.974Z,3.28
2022-08-16T12:02:31.318Z,3.75
2022-08-16T12:07:23.585Z,3.22
2022-08-16T12:12:25.808Z,3.00
2022-08-16T12:17:31.799Z,3.20
2022-08-16T12:22:36.766Z,3.08
2022-08-16T12:27:39.419Z,3.60
2022-08-16T12:32:42.245Z,3.00
2022-08-16T12:37:46.244Z,2.80
2022-08-16T12:42:53.020Z,2.90
2022-08-16T12:53:39.730Z,2.97
2022-08-16T12:58:50.333Z,2.90
2022-08-16T13:04:21.355Z,2.80
2022-08-16T13:09:26.725Z,3.10
2022-08-16T13:14:38.610Z,2.72
2022-08-16T13:25:02.760Z,3.33
2022-08-16T13:30:21.876Z,3.00
2022-08-16T13:35:34.599Z,3.00
2022-08-16T13:40:36.881Z,2.60
2022-08-16T13:45:44.887Z,3.00
2022-08-16T13:50:51.595Z,4.07
2022-08-16T13:55:58.549Z,3.22
2022-08-16T14:01:01.829Z,2.85
2022-08-16T14:06:03.809Z,3.03
2022-08-16T14:11:06.067Z,2.67
2022-08-16T14:16:24.176Z,2.80
2022-08-16T14:21:35.444Z,2.65
2022-08-16T14:26:37.518Z,2.75
2022-08-16T14:31:40.845Z,2.78
2022-08-16T14:36:42.792Z,2.70
2022-08-16T14:41:45.201Z,2.60
2022-08-16T14:46:47.121Z,2.67
2022-08-16T14:51:48.942Z,2.72
2022-08-16T14:56:54.869Z,2.60
2022-08-16T15:01:59.513Z,2.42
2022-08-16T15:07:02.281Z,2.47
2022-08-16T15:12:26.806Z,2.75
2022-08-16T15:17:37.053Z,2.63
2022-08-16T15:22:48.159Z,2.72
2022-08-16T15:27:54.733Z,2.95
2022-08-16T15:33:06.036Z,2.60
2022-08-16T15:38:09.080Z,2.80
2022-08-16T15:43:11.340Z,3.00
2022-08-16T15:48:13.395Z,3.08
2022-08-16T15:53:23.612Z,2.75
2022-08-16T15:58:35.494Z,3.47
2022-08-16T16:03:40.484Z,2.78
2022-08-16T16:08:43.296Z,2.65
2022-08-16T16:13:47.728Z,2.50
2022-08-16T16:18:53.605Z,2.70
2022-08-16T16:23:58.953Z,4.88
2022-08-16T16:29:08.660Z,2.72
2022-08-16T16:34:16.557Z,2.65
2022-08-16T16:39:19.216Z,2.97
2022-08-16T16:44:31.775Z,2.60
2022-08-16T16:49:35.682Z,2.70
2022-08-16T16:54:43.547Z,2.67
2022-08-16T16:59:48.710Z,2.70
2022-08-16T17:04:57.361Z,2.45
2022-08-16T17:10:00.082Z,2.58
2022-08-16T17:15:02.622Z,2.70
2022-08-16T17:20:05.436Z,2.70
2022-08-16T17:25:15.351Z,2.70
2022-08-16T17:30:21.042Z,2.50
2022-08-16T17:35:40.199Z,2.90
2022-08-16T17:40:58.642Z,2.80
2022-08-16T17:46:01.640Z,2.53
2022-08-16T17:51:05.353Z,3.08
2022-08-16T17:56:07.231Z,3.30
2022-08-16T18:01:08.940Z,3.20
2022-08-16T18:06:13.248Z,3.15
2022-08-16T18:11:18.063Z,3.15
2022-08-16T18:16:20.636Z,3.17
2022-08-16T18:21:41.874Z,2.92
2022-08-16T18:26:43.642Z,3.22
2022-08-16T18:31:48.874Z,3.30
2022-08-16T18:36:50.944Z,3.95
2022-08-16T18:41:52.797Z,4.18
2022-08-16T18:46:54.620Z,4.32
2022-08-16T18:51:58.428Z,4.70
2022-08-16T18:57:03.446Z,4.28
2022-08-16T19:02:09.012Z,4.68
2022-08-16T19:07:31.765Z,4.50
2022-08-16T19:12:38.243Z,5.35
2022-08-16T19:17:45.628Z,4.60
2022-08-16T19:23:05.114Z,5.10
2022-08-16T19:28:07.747Z,5.32
2022-08-16T19:33:29.831Z,5.28
2022-08-16T19:38:31.512Z,5.85
2022-08-16T19:43:34.066Z,5.65
2022-08-16T19:48:35.813Z,5.55
2022-08-16T19:53:37.586Z,5.40
2022-08-16T19:58:50.996Z,5.68
2022-08-16T20:04:00.956Z,5.63
2022-08-16T20:09:03.551Z,6.15
2022-08-16T20:14:05.633Z,6.07
2022-08-16T20:19:07.369Z,5.65
2022-08-16T20:24:32.680Z,5.70
2022-08-16T20:29:31.034Z,6.25
2022-08-16T20:34:32.841Z,6.38
2022-08-16T20:39:34.708Z,6.45
2022-08-16T20:44:36.527Z,5.97
2022-08-16T20:49:38.458Z,5.97
2022-08-16T20:54:41.110Z,6.18
2022-08-16T20:59:48.053Z,6.70
2022-08-16T21:04:51.723Z,7.28
2022-08-16T21:09:53.462Z,6.90
2022-08-16T21:14:55.240Z,7.10
2022-08-16T21:19:56.956Z,7.30
2022-08-16T21:24:59.669Z,6.65
2022-08-16T21:30:01.513Z,7.55
2022-08-16T21:35:08.994Z,7.70
2022-08-16T21:40:11.904Z,9.05
2022-08-16T21:45:14.406Z,10.27
2022-08-16T21:50:16.165Z,10.15
2022-08-16T21:55:17.934Z,9.75
2022-08-16T22:00:19.680Z,8.75
2022-08-16T22:05:22.105Z,8.90
2022-08-16T22:11:04.457Z,9.40
2022-08-16T22:15:47.703Z,9.90
2022-08-16T22:20:50.394Z,8.98
2022-08-16T22:25:54.450Z,9.10
2022-08-16T22:30:56.819Z,9.25
2022-08-16T22:36:00.893Z,9.07
2022-08-16T22:41:04.657Z,9.15
2022-08-16T22:46:06.571Z,8.75
2022-08-16T22:51:08.300Z,8.70
2022-08-16T22:56:10.288Z,8.68
2022-08-16T23:01:12.745Z,8.77
2022-08-16T23:06:14.755Z,8.30
2022-08-16T23:11:22.367Z,8.40
2022-08-16T23:16:33.674Z,8.32
2022-08-16T23:21:38.023Z,8.52
2022-08-16T23:26:46.084Z,8.73
2022-08-16T23:31:50.334Z,8.32
2022-08-16T23:36:55.588Z,8.38
2022-08-16T23:41:58.775Z,8.27
2022-08-16T23:47:00.476Z,7.78
2022-08-16T23:52:10.174Z,8.73
2022-08-16T23:57:11.980Z,8.02
